createdAt,value
2023-01-13T00:00:38.433Z,8.34
2023-01-13T00:03:06.789Z,8.42
2023-01-13T00:05:35.399Z,8.38
2023-01-13T00:08:05.024Z,8.37
2023-01-13T00:10:34.162Z,8.33
2023-01-13T00:13:03.122Z,8.39
2023-01-13T00:15:33.209Z,8.38
2023-01-13T00:18:01.436Z,8.43
2023-01-13T00:20:29.769Z,8.47
2023-01-13T00:22:58.912Z,8.39
2023-01-13T00:25:27.236Z,8.45
2023-01-13T00:27:55.589Z,8.48
2023-01-13T00:30:23.802Z,8.39
2023-01-13T00:32:53.948Z,8.52
2023-01-13T00:35:22.188Z,8.51
2023-01-13T00:37:50.418Z,8.52
2023-01-13T00:40:18.876Z,8.61
2023-01-13T00:43:04.741Z,8.51
2023-01-13T00:45:33.338Z,8.52
2023-01-13T00:48:03.075Z,8.60
2023-01-13T00:50:31.395Z,8.53
2023-01-13T00:53:01.179Z,8.63
2023-01-13T00:55:32.340Z,8.66
2023-01-13T00:58:03.559Z,8.62
2023-01-13T01:00:32.191Z,8.67
2023-01-13T01:03:00.592Z,8.68
2023-01-13T01:05:30.341Z,8.68
2023-01-13T01:07:58.681Z,8.61
2023-01-13T01:10:27.037Z,8.68
2023-01-13T01:12:55.252Z,8.63
2023-01-13T01:15:23.516Z,8.63
2023-01-13T01:17:51.751Z,8.65
2023-01-13T01:20:20.191Z,8.66
2023-01-13T01:22:49.727Z,8.78
2023-01-13T01:25:17.997Z,8.81
2023-01-13T01:27:46.231Z,8.70
2023-01-13T01:30:15.669Z,8.70
2023-01-13T01:32:43.916Z,8.73
2023-01-13T01:35:12.217Z,8.69
2023-01-13T01:37:40.418Z,8.79
2023-01-13T01:40:11.797Z,8.65
2023-01-13T01:42:57.587Z,8.69
2023-01-13T01:45:27.893Z,8.70
2023-01-13T01:48:04.173Z,8.72
2023-01-13T01:50:33.275Z,8.68
2023-01-13T01:53:08.191Z,8.68
2023-01-13T01:55:39.289Z,8.77
2023-01-13T01:58:12.674Z,8.80
2023-01-13T02:00:41.323Z,8.80
2023-01-13T02:03:10.738Z,8.74
2023-01-13T02:05:39.617Z,8.74
2023-01-13T02:08:09.287Z,8.62
2023-01-13T02:10:39.974Z,8.79
2023-01-13T02:13:11.351Z,8.85
2023-01-13T02:15:45.276Z,8.79
2023-01-13T02:18:27.660Z,8.81
2023-01-13T02:21:19.046Z,8.85
2023-01-13T02:24:37.675Z,8.85
2023-01-13T02:27:35.284Z,8.86
2023-01-13T02:30:34.241Z,8.94
2023-01-13T02:33:15.473Z,8.98
2023-01-13T02:35:51.655Z,9.02
2023-01-13T02:38:26.184Z,9.00
2023-01-13T02:40:59.418Z,9.05
2023-01-13T02:43:51.866Z,9.00
2023-01-13T02:46:28.517Z,8.98
2023-01-13T02:49:02.737Z,9.03
2023-01-13T02:51:33.670Z,9.14
2023-01-13T02:54:05.748Z,9.12
2023-01-13T02:56:38.457Z,9.03
2023-01-13T02:59:07.970Z,9.12
2023-01-13T03:01:37.833Z,9.03
2023-01-13T03:04:16.087Z,9.01
2023-01-13T03:06:54.853Z,9.12
2023-01-13T03:09:29.889Z,9.06
2023-01-13T03:12:07.621Z,9.12
2023-01-13T03:14:43.148Z,9.13
2023-01-13T03:17:23.054Z,9.08
2023-01-13T03:20:00.163Z,9.19
2023-01-13T03:22:35.440Z,9.13
2023-01-13T03:25:09.000Z,9.23
2023-01-13T03:27:45.975Z,9.16
2023-01-13T03:30:20.072Z,9.16
2023-01-13T03:32:53.132Z,9.05
2023-01-13T03:35:25.015Z,9.12
2023-01-13T03:38:03.797Z,9.09
2023-01-13T03:40:36.851Z,9.15
2023-01-13T03:43:28.500Z,9.13
2023-01-13T03:46:03.426Z,9.07
2023-01-13T03:48:37.102Z,9.19
2023-01-13T03:51:08.591Z,9.20
2023-01-13T03:53:41.170Z,9.09
2023-01-13T03:56:14.662Z,8.92
2023-01-13T03:58:46.687Z,9.08
2023-01-13T04:01:17.870Z,9.13
2023-01-13T04:03:53.254Z,9.10
2023-01-13T04:06:39.102Z,9.14
2023-01-13T04:09:12.779Z,9.03
2023-01-13T04:11:45.177Z,9.11
2023-01-13T04:14:15.110Z,9.16
2023-01-13T04:16:44.433Z,9.18
2023-01-13T04:19:14.072Z,9.11
2023-01-13T04:21:42.274Z,9.04
2023-01-13T04:24:10.571Z,9.19
2023-01-13T04:26:38.708Z,9.09
2023-01-13T04:29:06.834Z,9.17
2023-01-13T04:31:35.000Z,9.08
2023-01-13T04:34:03.155Z,9.14
2023-01-13T04:36:32.672Z,9.24
2023-01-13T04:39:00.805Z,9.18
2023-01-13T04:41:48.940Z,9.13
2023-01-13T04:44:17.075Z,9.16
2023-01-13T04:46:45.349Z,9.08
2023-01-13T04:49:13.540Z,9.05
2023-01-13T04:51:43.183Z,9.09
2023-01-13T04:54:11.889Z,9.18
2023-01-13T04:56:40.059Z,9.25
2023-01-13T04:59:08.760Z,9.12
2023-01-13T05:01:37.040Z,9.16
2023-01-13T05:04:05.447Z,9.21
2023-01-13T05:06:33.735Z,9.18
2023-01-13T05:09:03.525Z,9.08
2023-01-13T05:11:49.335Z,9.13
2023-01-13T05:14:34.984Z,9.13
2023-01-13T05:17:03.561Z,9.01
2023-01-13T05:19:34.060Z,9.07
2023-01-13T05:22:20.326Z,9.02
2023-01-13T05:25:07.471Z,9.03
2023-01-13T05:27:36.798Z,9.02
2023-01-13T05:30:05.899Z,9.02
2023-01-13T05:32:34.391Z,9.00
2023-01-13T05:35:02.695Z,8.94
2023-01-13T05:37:31.372Z,9.07
2023-01-13T05:40:18.506Z,9.09
2023-01-13T05:43:04.189Z,9.13
2023-01-13T05:45:32.625Z,9.12
2023-01-13T05:48:00.821Z,9.26
2023-01-13T05:50:28.996Z,9.25
2023-01-13T05:52:57.353Z,9.20
2023-01-13T05:55:27.292Z,9.31
2023-01-13T05:57:55.423Z,9.34
2023-01-13T06:00:23.785Z,9.32
2023-01-13T06:02:52.735Z,9.20
2023-01-13T06:05:21.048Z,9.22
2023-01-13T06:07:49.218Z,9.29
2023-01-13T06:10:17.997Z,9.30
2023-01-13T06:12:47.494Z,9.25
2023-01-13T06:15:15.674Z,9.25
2023-01-13T06:17:43.869Z,9.27
2023-01-13T06:20:12.928Z,9.40
2023-01-13T06:22:43.693Z,9.36
2023-01-13T06:25:18.938Z,9.41
2023-01-13T06:27:49.385Z,9.38
2023-01-13T06:30:18.474Z,9.24
2023-01-13T06:32:53.057Z,9.23
2023-01-13T06:35:26.494Z,9.19
2023-01-13T06:37:57.435Z,9.21
2023-01-13T06:40:26.072Z,9.24
2023-01-13T06:43:16.308Z,9.25
2023-01-13T06:45:49.162Z,9.22
2023-01-13T06:48:18.519Z,9.26
2023-01-13T06:50:46.680Z,9.34
2023-01-13T06:53:15.110Z,9.30
2023-01-13T06:55:43.367Z,9.16
2023-01-13T06:58:13.133Z,9.17
2023-01-13T07:00:41.535Z,9.23
2023-01-13T07:03:11.392Z,9.21
2023-01-13T07:05:41.188Z,9.26
2023-01-13T07:08:10.195Z,9.29
2023-01-13T07:10:39.473Z,9.18
2023-01-13T07:13:25.220Z,9.16
2023-01-13T07:15:56.826Z,9.34
2023-01-13T07:18:27.337Z,9.23
2023-01-13T07:20:57.403Z,9.30
2023-01-13T07:23:26.631Z,9.24
2023-01-13T07:25:56.259Z,9.38
2023-01-13T07:28:24.980Z,9.32
2023-01-13T07:30:53.376Z,9.38
2023-01-13T07:33:23.591Z,9.42
2023-01-13T07:35:57.775Z,9.46
2023-01-13T07:38:26.363Z,9.48
2023-01-13T07:40:54.862Z,9.45
2023-01-13T07:43:34.771Z,9.40
2023-01-13T07:46:05.500Z,9.55
2023-01-13T07:48:35.659Z,9.50
2023-01-13T07:51:05.265Z,9.38
2023-01-13T07:53:34.430Z,9.09
2023-01-13T07:56:04.634Z,9.08
2023-01-13T07:58:34.178Z,9.03
2023-01-13T08:01:09.299Z,8.96
2023-01-13T08:03:39.145Z,9.02
2023-01-13T08:06:08.031Z,9.00
2023-01-13T08:08:36.440Z,9.04
2023-01-13T08:11:06.924Z,9.23
2023-01-13T08:13:35.684Z,9.29
2023-01-13T08:16:06.193Z,9.30
2023-01-13T08:18:35.996Z,9.18
2023-01-13T08:21:07.874Z,9.23
2023-01-13T08:23:36.757Z,9.19
2023-01-13T08:26:07.578Z,9.08
2023-01-13T08:28:36.063Z,9.12
2023-01-13T08:31:06.157Z,9.00
2023-01-13T08:33:34.913Z,9.03
2023-01-13T08:36:06.018Z,9.02
2023-01-13T08:38:34.644Z,9.00
2023-01-13T08:41:08.846Z,8.98
2023-01-13T08:44:23.749Z,9.00
2023-01-13T08:46:51.964Z,8.90
2023-01-13T08:49:20.687Z,8.98
2023-01-13T08:51:51.187Z,9.07
2023-01-13T08:54:20.551Z,8.99
2023-01-13T08:56:49.176Z,9.10
2023-01-13T08:59:19.405Z,9.13
2023-01-13T09:01:47.840Z,9.11
2023-01-13T09:04:18.503Z,9.03
2023-01-13T09:06:47.437Z,9.03
2023-01-13T09:09:17.237Z,9.09
2023-01-13T09:12:05.397Z,9.14
2023-01-13T09:14:35.401Z,9.06
2023-01-13T09:17:04.058Z,9.04
2023-01-13T09:19:32.249Z,9.03
2023-01-13T09:22:00.830Z,8.92
2023-01-13T09:24:31.104Z,8.90
2023-01-13T09:26:59.307Z,8.88
2023-01-13T09:29:27.520Z,8.77
2023-01-13T09:31:57.854Z,8.86
2023-01-13T09:34:43.559Z,8.88
2023-01-13T09:37:11.711Z,8.81
2023-01-13T09:39:41.441Z,8.79
2023-01-13T09:42:37.293Z,8.70
2023-01-13T09:45:08.190Z,8.80
2023-01-13T09:47:45.366Z,8.62
2023-01-13T09:50:26.660Z,8.68
2023-01-13T09:52:56.396Z,8.61
2023-01-13T09:55:31.011Z,8.54
2023-01-13T09:57:59.405Z,8.47
2023-01-13T10:00:35.935Z,8.48
2023-01-13T10:03:19.273Z,8.53
2023-01-13T10:05:56.439Z,8.72
2023-01-13T10:08:27.659Z,8.77
2023-01-13T10:10:59.438Z,8.76
2023-01-13T10:13:29.120Z,8.68
2023-01-13T10:16:14.508Z,8.81
2023-01-13T10:18:57.975Z,8.61
2023-01-13T10:21:49.117Z,8.66
2023-01-13T10:24:27.644Z,8.60
2023-01-13T10:27:04.880Z,8.68
2023-01-13T10:29:34.622Z,8.55
2023-01-13T10:32:02.886Z,8.66
2023-01-13T10:34:31.217Z,8.53
2023-01-13T10:37:01.970Z,8.65
2023-01-13T10:39:40.758Z,8.67
2023-01-13T10:42:14.812Z,8.70
2023-01-13T10:44:50.525Z,8.69
2023-01-13T10:47:25.096Z,8.60
2023-01-13T10:50:08.689Z,8.64
2023-01-13T10:52:42.938Z,8.61
2023-01-13T10:55:26.849Z,8.64
2023-01-13T10:57:56.571Z,8.63
2023-01-13T11:00:30.379Z,8.72
2023-01-13T11:03:17.149Z,8.77
2023-01-13T11:05:54.423Z,8.77
2023-01-13T11:08:25.463Z,8.75
2023-01-13T11:10:54.989Z,8.58
2023-01-13T11:13:32.935Z,8.63
2023-01-13T11:16:06.290Z,8.71
2023-01-13T11:18:43.607Z,8.88
2023-01-13T11:21:21.543Z,8.84
2023-01-13T11:23:56.287Z,8.91
2023-01-13T11:26:31.055Z,8.92
2023-01-13T11:29:06.768Z,8.87
2023-01-13T11:31:40.764Z,8.96
2023-01-13T11:34:26.453Z,8.80
2023-01-13T11:36:57.830Z,8.73
2023-01-13T11:39:31.029Z,8.62
2023-01-13T11:42:21.866Z,8.57
2023-01-13T11:44:59.651Z,8.50
2023-01-13T11:47:28.857Z,8.65
2023-01-13T11:49:57.239Z,8.65
2023-01-13T11:52:37.225Z,8.58
2023-01-13T11:55:31.718Z,8.80
2023-01-13T11:58:25.421Z,8.99
2023-01-13T12:01:07.591Z,9.14
2023-01-13T12:03:41.284Z,9.18
2023-01-13T12:06:20.865Z,9.35
2023-01-13T12:09:19.335Z,9.32
2023-01-13T12:12:16.760Z,9.22
2023-01-13T12:14:59.778Z,9.28
2023-01-13T12:17:39.489Z,9.38
2023-01-13T12:20:25.603Z,9.30
2023-01-13T12:22:56.767Z,9.31
2023-01-13T12:25:34.416Z,9.25
2023-01-13T12:28:10.206Z,9.28
2023-01-13T12:30:45.347Z,9.17
2023-01-13T12:33:25.519Z,9.30
2023-01-13T12:36:01.907Z,9.44
2023-01-13T12:38:37.209Z,9.30
2023-01-13T12:41:15.826Z,9.42
2023-01-13T12:44:06.106Z,9.36
2023-01-13T12:46:45.421Z,9.36
2023-01-13T12:49:24.860Z,9.52
2023-01-13T12:52:23.206Z,9.44
2023-01-13T12:55:14.388Z,9.50
2023-01-13T12:57:58.093Z,9.39
2023-01-13T13:00:33.273Z,9.28
2023-01-13T13:03:30.038Z,9.29
2023-01-13T13:06:04.684Z,9.30
2023-01-13T13:08:46.481Z,9.10
2023-01-13T13:11:54.240Z,8.96
2023-01-13T13:15:07.225Z,9.09
2023-01-13T13:17:43.273Z,9.12
2023-01-13T13:20:50.665Z,9.30
2023-01-13T13:24:11.293Z,9.27
2023-01-13T13:26:45.718Z,9.22
2023-01-13T13:29:27.069Z,9.22
2023-01-13T13:32:10.365Z,9.15
2023-01-13T13:34:49.400Z,9.16
2023-01-13T13:37:34.117Z,9.14
2023-01-13T13:40:28.594Z,9.21
2023-01-13T13:43:16.099Z,9.10
2023-01-13T13:46:09.032Z,9.03
2023-01-13T13:48:37.352Z,9.02
2023-01-13T13:51:26.120Z,9.02
2023-01-13T13:53:55.830Z,8.99
2023-01-13T13:56:27.818Z,8.80
2023-01-13T13:58:56.446Z,8.83
2023-01-13T14:01:28.360Z,8.78
2023-01-13T14:04:06.383Z,8.68
2023-01-13T14:06:35.026Z,8.95
2023-01-13T14:09:04.500Z,8.98
2023-01-13T14:11:36.046Z,8.97
2023-01-13T14:14:06.270Z,8.96
2023-01-13T14:16:36.413Z,8.75
2023-01-13T14:19:05.130Z,8.63
2023-01-13T14:21:33.451Z,8.61
2023-01-13T14:24:10.707Z,8.53
2023-01-13T14:26:40.363Z,8.46
2023-01-13T14:29:14.413Z,8.29
2023-01-13T14:31:44.551Z,8.28
2023-01-13T14:34:32.305Z,8.32
2023-01-13T14:37:02.869Z,8.39
2023-01-13T14:39:38.801Z,8.24
2023-01-13T14:42:14.135Z,8.25
2023-01-13T14:44:46.379Z,8.27
2023-01-13T14:47:25.389Z,8.17
2023-01-13T14:50:02.412Z,8.15
2023-01-13T14:52:32.607Z,8.06
2023-01-13T14:55:23.566Z,8.18
2023-01-13T14:57:53.153Z,8.02
2023-01-13T15:00:26.058Z,8.11
2023-01-13T15:03:05.937Z,8.17
2023-01-13T15:05:37.062Z,8.16
2023-01-13T15:08:26.954Z,8.04
2023-01-13T15:10:59.829Z,8.26
2023-01-13T15:13:35.678Z,8.24
2023-01-13T15:16:06.580Z,8.21
2023-01-13T15:18:39.863Z,8.08
2023-01-13T15:21:08.225Z,8.13
2023-01-13T15:23:36.909Z,8.24
2023-01-13T15:26:05.447Z,8.19
2023-01-13T15:28:34.972Z,8.13
2023-01-13T15:31:03.849Z,8.10
2023-01-13T15:33:32.236Z,8.21
2023-01-13T15:36:01.776Z,8.29
2023-01-13T15:38:29.916Z,8.23
2023-01-13T15:40:58.079Z,8.24
2023-01-13T15:43:43.809Z,8.26
2023-01-13T15:46:34.291Z,8.19
2023-01-13T15:49:09.784Z,8.28
2023-01-13T15:51:38.866Z,8.22
2023-01-13T15:54:07.462Z,8.17
2023-01-13T15:56:37.923Z,8.08
2023-01-13T15:59:07.757Z,7.96
2023-01-13T16:01:37.432Z,8.01
2023-01-13T16:04:06.231Z,7.99
2023-01-13T16:06:37.129Z,7.86
2023-01-13T16:09:06.427Z,7.87
2023-01-13T16:11:34.536Z,7.76
2023-01-13T16:14:02.629Z,7.63
2023-01-13T16:16:30.978Z,7.57
2023-01-13T16:19:00.422Z,7.55
2023-01-13T16:21:28.497Z,7.60
2023-01-13T16:23:56.641Z,7.54
2023-01-13T16:26:26.799Z,7.58
2023-01-13T16:28:57.221Z,7.52
2023-01-13T16:31:29.212Z,7.43
2023-01-13T16:33:57.714Z,7.19
2023-01-13T16:36:28.011Z,7.27
2023-01-13T16:38:58.276Z,7.38
2023-01-13T16:41:26.440Z,7.37
2023-01-13T16:43:54.927Z,7.46
2023-01-13T16:46:25.675Z,7.45
2023-01-13T16:48:56.700Z,7.42
2023-01-13T16:51:26.651Z,7.49
2023-01-13T16:53:54.883Z,7.48
2023-01-13T16:56:27.880Z,7.53
2023-01-13T16:58:58.047Z,7.58
2023-01-13T17:01:28.289Z,7.43
2023-01-13T17:03:57.568Z,7.52
2023-01-13T17:06:33.111Z,7.46
2023-01-13T17:09:02.491Z,7.35
2023-01-13T17:11:30.972Z,7.28
2023-01-13T17:13:59.212Z,7.13
2023-01-13T17:16:28.284Z,7.00
2023-01-13T17:18:56.604Z,6.87
2023-01-13T17:21:24.807Z,7.04
2023-01-13T17:23:54.406Z,7.14
2023-01-13T17:26:32.061Z,7.14
2023-01-13T17:29:01.350Z,7.06
2023-01-13T17:31:30.397Z,7.10
2023-01-13T17:33:58.994Z,7.10
2023-01-13T17:36:27.266Z,7.20
2023-01-13T17:38:57.821Z,7.24
2023-01-13T17:41:27.050Z,7.22
2023-01-13T17:43:55.259Z,7.22
2023-01-13T17:46:23.530Z,7.16
2023-01-13T17:48:53.641Z,7.19
2023-01-13T17:51:25.030Z,7.18
2023-01-13T17:53:53.892Z,7.08
2023-01-13T17:56:25.186Z,7.02
2023-01-13T17:58:53.462Z,6.96
2023-01-13T18:01:23.463Z,6.98
2023-01-13T18:03:52.249Z,6.97
2023-01-13T18:06:22.641Z,7.03
2023-01-13T18:08:51.617Z,6.98
2023-01-13T18:11:22.112Z,6.98
2023-01-13T18:13:55.043Z,6.94
2023-01-13T18:16:24.412Z,7.02
2023-01-13T18:18:53.344Z,7.04
2023-01-13T18:21:41.868Z,7.15
2023-01-13T18:24:31.069Z,7.17
2023-01-13T18:27:16.820Z,7.09
2023-01-13T18:29:46.737Z,7.20
2023-01-13T18:32:15.617Z,6.95
2023-01-13T18:34:43.929Z,7.03
2023-01-13T18:37:13.647Z,7.00
2023-01-13T18:39:42.340Z,7.15
2023-01-13T18:42:30.076Z,7.12
2023-01-13T18:44:59.802Z,7.11
2023-01-13T18:47:30.722Z,7.08
2023-01-13T18:49:58.955Z,7.13
2023-01-13T18:52:27.371Z,7.07
2023-01-13T18:54:55.581Z,7.07
2023-01-13T18:57:23.856Z,7.15
2023-01-13T18:59:52.028Z,7.22
2023-01-13T19:02:23.445Z,7.30
2023-01-13T19:04:51.979Z,7.32
2023-01-13T19:07:24.370Z,7.26
2023-01-13T19:09:55.693Z,7.25
2023-01-13T19:12:27.463Z,7.25
2023-01-13T19:14:56.567Z,7.23
2023-01-13T19:17:28.422Z,7.34
2023-01-13T19:19:58.413Z,7.40
2023-01-13T19:22:30.799Z,7.42
2023-01-13T19:24:59.162Z,7.50
2023-01-13T19:27:28.344Z,7.47
2023-01-13T19:30:00.177Z,7.50
2023-01-13T19:32:30.908Z,7.41
2023-01-13T19:35:00.102Z,7.51
2023-01-13T19:37:30.289Z,7.50
2023-01-13T19:39:59.380Z,7.52
2023-01-13T19:42:45.677Z,7.49
2023-01-13T19:45:31.783Z,7.58
2023-01-13T19:48:04.778Z,7.57
2023-01-13T19:50:37.485Z,7.59
2023-01-13T19:53:05.999Z,7.56
2023-01-13T19:55:34.249Z,7.60
2023-01-13T19:58:03.579Z,7.71
2023-01-13T20:00:31.959Z,7.57
2023-01-13T20:03:03.541Z,7.69
2023-01-13T20:05:31.816Z,7.57
2023-01-13T20:07:59.988Z,7.55
2023-01-13T20:10:30.599Z,7.64
2023-01-13T20:12:58.969Z,7.54
2023-01-13T20:15:27.228Z,7.57
2023-01-13T20:17:55.863Z,7.64
2023-01-13T20:20:27.308Z,7.48
2023-01-13T20:22:55.441Z,7.55
2023-01-13T20:25:23.648Z,7.68
2023-01-13T20:27:51.849Z,7.60
2023-01-13T20:30:20.071Z,7.61
2023-01-13T20:32:48.238Z,7.56
2023-01-13T20:35:17.141Z,7.62
2023-01-13T20:37:46.665Z,7.47
2023-01-13T20:40:17.076Z,7.53
2023-01-13T20:42:47.352Z,7.42
2023-01-13T20:45:20.723Z,7.43
2023-01-13T20:47:49.299Z,7.48
2023-01-13T20:50:17.777Z,7.37
2023-01-13T20:52:47.818Z,7.38
2023-01-13T20:55:16.585Z,7.28
2023-01-13T20:57:48.476Z,7.24
2023-01-13T21:00:17.777Z,7.35
2023-01-13T21:02:46.099Z,7.40
2023-01-13T21:05:14.487Z,7.46
2023-01-13T21:07:42.845Z,7.38
2023-01-13T21:10:12.731Z,7.45
2023-01-13T21:12:58.793Z,7.52
2023-01-13T21:15:27.536Z,7.45
2023-01-13T21:18:13.431Z,7.39
2023-01-13T21:20:41.591Z,7.37
2023-01-13T21:23:11.190Z,7.45
2023-01-13T21:25:41.129Z,7.60
2023-01-13T21:28:11.497Z,7.53
2023-01-13T21:30:40.198Z,7.59
2023-01-13T21:33:08.557Z,7.63
2023-01-13T21:35:38.981Z,7.57
2023-01-13T21:38:07.278Z,7.58
2023-01-13T21:40:35.623Z,7.58
2023-01-13T21:43:22.691Z,7.56
2023-01-13T21:46:08.443Z,7.51
2023-01-13T21:48:36.651Z,7.52
2023-01-13T21:51:05.103Z,7.46
2023-01-13T21:53:33.311Z,7.48
2023-01-13T21:56:01.451Z,7.50
2023-01-13T21:58:31.044Z,7.56
2023-01-13T22:01:01.984Z,7.60
2023-01-13T22:03:30.222Z,7.45
2023-01-13T22:05:58.482Z,7.44
2023-01-13T22:08:26.650Z,7.42
2023-01-13T22:10:58.481Z,7.37
2023-01-13T22:13:44.988Z,7.33
2023-01-13T22:16:14.694Z,7.34
2023-01-13T22:18:43.214Z,7.43
2023-01-13T22:21:11.733Z,7.38
2023-01-13T22:23:40.128Z,7.26
2023-01-13T22:26:09.244Z,7.16
2023-01-13T22:28:42.748Z,7.13
2023-01-13T22:31:12.408Z,7.02
2023-01-13T22:33:42.643Z,7.28
2023-01-13T22:36:11.262Z,7.24
2023-01-13T22:38:39.786Z,7.24
2023-01-13T22:41:09.490Z,7.24
2023-01-13T22:43:38.824Z,7.24
2023-01-13T22:46:08.778Z,7.06
2023-01-13T22:48:37.509Z,7.11
2023-01-13T22:51:08.727Z,7.10
2023-01-13T22:53:38.114Z,6.97
2023-01-13T22:56:06.878Z,6.95
2023-01-13T22:58:35.085Z,6.99
2023-01-13T23:01:10.887Z,7.01
2023-01-13T23:03:39.191Z,7.05
2023-01-13T23:06:09.188Z,7.06
2023-01-13T23:08:37.810Z,6.93
2023-01-13T23:11:08.110Z,6.96
2023-01-13T23:13:37.901Z,6.95
2023-01-13T23:16:08.733Z,6.98
2023-01-13T23:18:36.904Z,6.97
2023-01-13T23:21:06.169Z,6.93
2023-01-13T23:23:35.977Z,6.95
2023-01-13T23:26:05.260Z,6.95
2023-01-13T23:28:34.533Z,6.85
2023-01-13T23:31:07.587Z,6.84
2023-01-13T23:33:37.578Z,6.98
2023-01-13T23:36:08.003Z,6.98
2023-01-13T23:38:37.492Z,6.88
2023-01-13T23:41:06.712Z,6.91
2023-01-13T23:43:35.394Z,6.92
2023-01-13T23:46:04.501Z,6.88
2023-01-13T23:48:33.790Z,6.81
2023-01-13T23:51:03.497Z,6.80
2023-01-13T23:53:33.481Z,6.86
2023-01-13T23:56:04.378Z,6.73
2023-01-13T23:58:33.061Z,6.76
